Аэропорт: Челябинск. Челябинск

ICAO: USCC

METAR:
2019/03/26 13:00
USCC 261300Z 26007MPS 9999 FEW040CB 04/M04 Q1013 R27/250050 NOSIG RMK QFE740
METAR:
2019/03/26 12:21
TAF TAF USCC 261100Z 2612/2712 24006G12MPS 9999 BKN015 BKN020CB 
      TEMPO 2612/2618 26007G16MPS 3100 -SHSN BKN011CB